Time;durP1;ratioP1;P1;durP2;ratioP2;P2;SDS_P1;SDS_P2;PMS_P1;PMS_P2;Temp;Humidity;BMP_temperature;BMP_pressure;BME280_temperature;BME280_humidity;BME280_pressure;Samples;Min_cycle;Max_cycle;Signal;HPM_P1;HPM_P2
2021/09/23 00:00:21;;;;;;;4.10;3.40;;;13.20;99.90;;;;;;4882606;29;20052;-76
2021/09/23 00:03:00;;;;;;;4.10;3.38;;;13.20;99.90;;;;;;4882671;29;20411;-76
2021/09/23 00:05:31;;;;;;;5.03;3.50;;;13.20;99.90;;;;;;4882329;29;20565;-76
2021/09/23 00:07:58;;;;;;;5.95;3.78;;;13.20;99.90;;;;;;4865361;29;20057;-76
2021/09/23 00:10:31;;;;;;;5.63;3.85;;;13.20;99.90;;;;;;4882697;29;20065;-76
2021/09/23 00:12:58;;;;;;;5.28;3.58;;;13.20;99.90;;;;;;4880983;29;20065;-76
2021/09/23 00:15:25;;;;;;;11.82;3.78;;;13.10;99.90;;;;;;4865513;29;20045;-76
2021/09/23 00:17:55;;;;;;;4.15;3.75;;;13.10;99.90;;;;;;4882717;29;20048;-76
2021/09/23 00:20:24;;;;;;;5.25;3.20;;;13.10;99.90;;;;;;4882539;29;20059;-76
2021/09/23 00:22:49;;;;;;;4.18;3.50;;;13.10;99.90;;;;;;4882588;29;20052;-76
2021/09/23 00:25:16;;;;;;;5.72;3.75;;;13.10;99.90;;;;;;4882322;29;20033;-76
2021/09/23 00:27:42;;;;;;;9.50;3.55;;;13.10;99.90;;;;;;4882639;29;20041;-76
2021/09/23 00:30:09;;;;;;;7.28;3.42;;;13.20;99.90;;;;;;4881069;29;20434;-76
2021/09/23 00:32:36;;;;;;;4.85;3.60;;;13.10;99.90;;;;;;4882360;29;20043;-76
2021/09/23 00:35:02;;;;;;;6.15;3.45;;;13.00;99.90;;;;;;4882068;29;20044;-76
2021/09/23 00:37:28;;;;;;;5.72;3.33;;;13.00;99.90;;;;;;4882516;29;20053;-76
2021/09/23 00:39:54;;;;;;;5.55;3.60;;;13.00;99.90;;;;;;4882834;29;20382;-76
2021/09/23 00:42:19;;;;;;;3.80;3.40;;;13.00;99.90;;;;;;4881965;29;20489;-76
2021/09/23 00:44:59;;;;;;;7.03;3.55;;;13.00;99.90;;;;;;4882242;29;20064;-76
2021/09/23 00:47:26;;;;;;;8.70;3.30;;;12.90;99.90;;;;;;4882350;29;20048;-76
2021/09/23 00:49:52;;;;;;;5.13;3.75;;;12.90;99.90;;;;;;4881900;29;20037;-76
2021/09/23 00:52:26;;;;;;;5.43;3.63;;;12.90;99.90;;;;;;4882307;29;20045;-76
2021/09/23 00:54:54;;;;;;;4.70;3.28;;;12.90;99.90;;;;;;4881770;29;20497;-76
2021/09/23 00:57:21;;;;;;;4.32;3.33;;;12.90;99.90;;;;;;4881764;29;20040;-76
2021/09/23 00:59:49;;;;;;;5.90;3.97;;;12.90;99.90;;;;;;4881942;29;20040;-76
2021/09/23 01:02:15;;;;;;;6.13;3.55;;;12.90;99.90;;;;;;4881774;29;20049;-76
2021/09/23 01:04:45;;;;;;;3.67;3.38;;;12.90;99.90;;;;;;4881917;29;20139;-76
2021/09/23 01:07:12;;;;;;;5.15;3.30;;;12.90;99.90;;;;;;4881774;29;20075;-77
2021/09/23 01:09:43;;;;;;;3.85;3.55;;;12.90;99.90;;;;;;4880002;29;20049;-76
2021/09/23 01:12:11;;;;;;;4.78;3.67;;;12.90;99.90;;;;;;4881627;29;20093;-76
2021/09/23 01:14:37;;;;;;;3.78;3.38;;;12.90;99.90;;;;;;4881148;29;20132;-76
2021/09/23 01:17:03;;;;;;;5.40;3.75;;;12.90;99.90;;;;;;4880621;29;20083;-76
2021/09/23 01:19:33;;;;;;;6.65;3.75;;;12.90;99.90;;;;;;4881100;29;20045;-76
2021/09/23 01:21:59;;;;;;;4.20;3.53;;;12.90;99.90;;;;;;4881219;29;20048;-76
2021/09/23 01:24:26;;;;;;;4.70;3.42;;;12.80;99.90;;;;;;4881096;29;20401;-76
2021/09/23 01:26:55;;;;;;;5.85;3.47;;;12.80;99.90;;;;;;4881589;29;20051;-76
2021/09/23 01:29:25;;;;;;;5.78;3.22;;;12.70;99.90;;;;;;4881392;29;20036;-76
2021/09/23 01:31:52;;;;;;;4.63;3.45;;;12.70;99.90;;;;;;4880918;29;20519;-76
2021/09/23 01:34:18;;;;;;;3.70;3.13;;;12.70;99.90;;;;;;4881034;29;20053;-76
2021/09/23 01:36:44;;;;;;;4.03;3.35;;;12.60;99.90;;;;;;4880781;29;20052;-76
2021/09/23 01:39:15;;;;;;;5.50;3.00;;;12.60;99.90;;;;;;4881541;29;20047;-76
2021/09/23 01:41:41;;;;;;;6.53;3.58;;;12.60;99.90;;;;;;4880601;29;20477;-76
2021/09/23 01:44:06;;;;;;;5.20;3.55;;;12.60;99.90;;;;;;4880986;29;20123;-76
2021/09/23 01:46:32;;;;;;;4.88;3.38;;;12.50;99.90;;;;;;4880804;29;20044;-76
2021/09/23 01:48:58;;;;;;;7.75;3.10;;;12.50;99.90;;;;;;4880952;29;20029;-76
2021/09/23 01:51:24;;;;;;;3.65;3.30;;;12.50;99.90;;;;;;4881187;29;20048;-76
2021/09/23 01:53:50;;;;;;;5.90;3.95;;;12.60;99.90;;;;;;4880612;29;20040;-76
2021/09/23 01:56:15;;;;;;;3.65;3.35;;;12.60;99.90;;;;;;4880735;29;20417;-76
2021/09/23 01:58:41;;;;;;;5.88;3.40;;;12.60;99.90;;;;;;4880638;29;20045;-76
2021/09/23 02:01:07;;;;;;;5.80;3.17;;;12.60;99.90;;;;;;4880610;29;20045;-76
2021/09/23 02:03:33;;;;;;;4.68;3.40;;;12.60;99.90;;;;;;4880330;29;20041;-76
2021/09/23 02:05:59;;;;;;;7.15;3.58;;;12.60;99.90;;;;;;4880522;29;20513;-76
2021/09/23 02:08:25;;;;;;;4.70;3.90;;;12.60;99.90;;;;;;4880281;29;20085;-76
2021/09/23 02:10:50;;;;;;;5.18;3.53;;;12.60;99.90;;;;;;4880733;29;20489;-76
2021/09/23 02:13:16;;;;;;;5.60;3.40;;;12.60;99.90;;;;;;4880413;29;20056;-76
2021/09/23 02:15:42;;;;;;;8.68;3.03;;;12.50;99.90;;;;;;4863672;29;20131;-76
2021/09/23 02:18:08;;;;;;;6.32;3.40;;;12.40;99.90;;;;;;4880727;29;20045;-76
2021/09/23 02:20:34;;;;;;;6.13;3.42;;;12.40;99.90;;;;;;4880985;29;20106;-76
2021/09/23 02:22:59;;;;;;;5.35;3.03;;;12.40;99.90;;;;;;4880572;29;20479;-76
2021/09/23 02:25:25;;;;;;;4.47;3.35;;;12.40;99.90;;;;;;4880561;29;20124;-76
2021/09/23 02:27:51;;;;;;;3.55;3.10;;;12.40;99.90;;;;;;4882884;29;20045;-76
2021/09/23 02:30:17;;;;;;;3.35;3.00;;;12.40;99.90;;;;;;4884511;29;20076;-76
2021/09/23 02:32:43;;;;;;;5.68;3.60;;;12.30;99.90;;;;;;4884316;29;20128;-76
2021/09/23 02:35:09;;;;;;;3.70;3.38;;;12.30;99.90;;;;;;4883911;29;20100;-76
2021/09/23 02:37:36;;;;;;;4.47;3.42;;;12.30;99.90;;;;;;4884021;29;20037;-76
2021/09/23 02:40:02;;;;;;;5.22;3.38;;;12.40;99.90;;;;;;4883888;29;20148;-76
2021/09/23 02:42:28;;;;;;;4.57;2.85;;;12.40;99.90;;;;;;4883962;29;20124;-76
2021/09/23 02:44:54;;;;;;;4.68;2.95;;;12.30;99.90;;;;;;4883528;29;20485;-76
2021/09/23 02:47:22;;;;;;;4.13;2.90;;;12.30;99.90;;;;;;4883929;29;20101;-76
2021/09/23 02:49:49;;;;;;;5.43;3.08;;;12.30;99.90;;;;;;4884077;29;20083;-76
2021/09/23 02:52:16;;;;;;;3.60;3.30;;;12.30;99.90;;;;;;4882848;29;20037;-76
2021/09/23 02:54:42;;;;;;;4.75;2.92;;;12.30;99.90;;;;;;4882552;29;20045;-76
2021/09/23 02:57:07;;;;;;;3.95;3.38;;;12.20;99.90;;;;;;4867492;29;20131;-76
2021/09/23 02:59:33;;;;;;;5.13;3.42;;;12.30;99.90;;;;;;4867064;29;20445;-76
2021/09/23 03:01:59;;;;;;;4.55;3.47;;;12.20;99.90;;;;;;4883645;29;20088;-76
2021/09/23 03:04:25;;;;;;;9.02;3.35;;;12.10;99.90;;;;;;4883480;29;20135;-76
2021/09/23 03:06:51;;;;;;;6.38;3.13;;;12.10;99.90;;;;;;4867272;29;20045;-76
2021/09/23 03:09:16;;;;;;;8.13;3.38;;;12.10;99.90;;;;;;4884576;29;20045;-76
2021/09/23 03:11:42;;;;;;;6.72;3.20;;;12.10;99.90;;;;;;4867132;29;20043;-76
2021/09/23 03:14:08;;;;;;;8.48;3.75;;;12.10;99.90;;;;;;4883762;29;20045;-76
2021/09/23 03:16:34;;;;;;;6.90;3.80;;;12.10;99.90;;;;;;4883336;29;20045;-76
2021/09/23 03:19:00;;;;;;;4.35;3.45;;;12.10;99.90;;;;;;4884069;29;20048;-76
2021/09/23 03:21:26;;;;;;;6.60;3.30;;;12.10;99.90;;;;;;4883673;29;20051;-76
2021/09/23 03:23:52;;;;;;;6.82;3.67;;;12.10;99.90;;;;;;4866969;29;20037;-76
2021/09/23 03:26:18;;;;;;;4.93;3.42;;;12.10;99.90;;;;;;4883474;29;20049;-76
2021/09/23 03:28:44;;;;;;;4.90;3.22;;;12.10;99.90;;;;;;4883528;29;20037;-76
2021/09/23 03:31:09;;;;;;;3.75;3.30;;;12.10;99.90;;;;;;4883098;29;20549;-76
2021/09/23 03:33:35;;;;;;;4.43;3.38;;;12.00;99.90;;;;;;4883783;29;20135;-76
2021/09/23 03:36:01;;;;;;;4.45;2.88;;;12.00;99.90;;;;;;4882209;29;20101;-76
2021/09/23 03:38:27;;;;;;;3.50;3.05;;;12.00;99.90;;;;;;4882398;29;20037;-76
2021/09/23 03:40:53;;;;;;;3.95;3.10;;;11.90;99.90;;;;;;4866672;29;20088;-76
2021/09/23 03:43:20;;;;;;;6.25;3.72;;;11.90;99.90;;;;;;4883130;29;20119;-76
2021/09/23 03:45:49;;;;;;;8.50;3.50;;;11.90;99.90;;;;;;4866400;29;20132;-76
2021/09/23 03:48:16;;;;;;;3.42;3.05;;;12.00;99.90;;;;;;4883379;29;20164;-76
2021/09/23 03:50:42;;;;;;;4.10;3.33;;;12.00;99.90;;;;;;4883756;29;20487;-75
2021/09/23 03:53:07;;;;;;;5.75;3.35;;;12.00;99.90;;;;;;4883159;29;20045;-76
2021/09/23 03:55:33;;;;;;;5.03;3.28;;;11.90;99.90;;;;;;4883271;29;20056;-75
2021/09/23 03:57:59;;;;;;;4.03;3.28;;;11.90;99.90;;;;;;4866069;29;20067;-76
2021/09/23 04:00:26;;;;;;;4.63;3.30;;;11.80;99.90;;;;;;4866142;29;20083;-76
2021/09/23 04:02:52;;;;;;;4.78;3.38;;;11.80;99.90;;;;;;4883029;29;20045;-76
2021/09/23 04:05:18;;;;;;;4.63;3.30;;;11.90;99.90;;;;;;4882993;29;20508;-76
2021/09/23 04:07:44;;;;;;;4.53;3.10;;;11.80;99.90;;;;;;4882839;29;20049;-76
2021/09/23 04:10:10;;;;;;;4.38;3.13;;;11.80;99.90;;;;;;4882908;29;20073;-76
2021/09/23 04:12:37;;;;;;;4.38;3.22;;;11.70;99.90;;;;;;4882571;29;20460;-76
2021/09/23 04:15:04;;;;;;;4.90;3.20;;;11.70;99.90;;;;;;4882308;29;20160;-76
2021/09/23 04:17:30;;;;;;;5.28;3.33;;;11.70;99.90;;;;;;4882906;29;20049;-75
2021/09/23 04:19:56;;;;;;;3.15;2.85;;;11.70;99.90;;;;;;4882702;29;20092;-76
2021/09/23 04:22:23;;;;;;;4.10;2.80;;;11.70;99.90;;;;;;4882622;29;20089;-76
2021/09/23 04:24:48;;;;;;;5.88;3.40;;;11.70;99.90;;;;;;4882377;29;20053;-76
2021/09/23 04:27:15;;;;;;;4.82;3.45;;;11.70;99.90;;;;;;4882868;29;20485;-77
2021/09/23 04:29:43;;;;;;;5.63;3.35;;;11.70;99.90;;;;;;4882208;29;20101;-76
2021/09/23 04:32:11;;;;;;;5.72;3.45;;;11.70;99.90;;;;;;4882342;29;20044;-76
2021/09/23 04:34:37;;;;;;;5.03;3.40;;;11.70;99.90;;;;;;4882099;29;20041;-75
2021/09/23 04:37:03;;;;;;;6.40;3.80;;;11.60;99.90;;;;;;4881355;29;20378;-75
2021/09/23 04:39:29;;;;;;;5.45;3.25;;;11.60;99.90;;;;;;4896239;29;20040;-76
2021/09/23 04:41:55;;;;;;;5.65;2.97;;;11.60;99.90;;;;;;4900905;29;20101;-75
2021/09/23 04:44:21;;;;;;;4.40;3.03;;;11.60;99.90;;;;;;4900992;29;20523;-75
2021/09/23 04:46:47;;;;;;;6.78;2.90;;;11.60;99.90;;;;;;4900656;29;20045;-75
2021/09/23 04:49:13;;;;;;;5.00;3.17;;;11.60;99.90;;;;;;4901024;29;20044;-76
2021/09/23 04:51:40;;;;;;;4.93;3.20;;;11.50;99.90;;;;;;4900526;29;20497;-76
2021/09/23 04:54:07;;;;;;;5.78;3.20;;;11.50;99.90;;;;;;4900743;29;20072;-75
2021/09/23 04:56:34;;;;;;;6.28;2.97;;;11.50;99.90;;;;;;4900640;29;20544;-76
2021/09/23 04:59:01;;;;;;;5.13;3.30;;;11.60;99.90;;;;;;4900772;29;20096;-75
2021/09/23 05:01:27;;;;;;;4.78;3.10;;;11.50;99.90;;;;;;4899397;29;20366;-75
2021/09/23 05:03:53;;;;;;;5.80;3.08;;;11.50;99.90;;;;;;4900237;29;20091;-75
2021/09/23 05:06:19;;;;;;;8.27;3.17;;;11.50;99.90;;;;;;4899810;29;20053;-75
2021/09/23 05:08:45;;;;;;;3.60;2.78;;;11.40;99.90;;;;;;4900509;29;20516;-76
2021/09/23 05:11:10;;;;;;;3.33;2.80;;;11.50;99.90;;;;;;4889118;29;20564;-75
2021/09/23 05:13:36;;;;;;;6.43;3.35;;;11.50;99.90;;;;;;4881447;29;20127;-76
2021/09/23 05:16:02;;;;;;;4.47;3.20;;;11.50;99.90;;;;;;4881103;29;20081;-75
2021/09/23 05:18:28;;;;;;;7.00;3.60;;;11.60;99.90;;;;;;4865462;29;20090;-75
2021/09/23 05:20:54;;;;;;;5.35;3.10;;;11.60;99.90;;;;;;4881074;29;20147;-75
2021/09/23 05:23:20;;;;;;;4.03;3.08;;;11.50;99.90;;;;;;4880345;29;20040;-75
2021/09/23 05:25:46;;;;;;;6.00;2.70;;;11.50;99.90;;;;;;4879048;29;20170;-76
2021/09/23 05:28:12;;;;;;;5.35;3.03;;;11.50;99.90;;;;;;4885706;29;20057;-74
2021/09/23 05:30:39;;;;;;;5.78;3.35;;;11.50;99.90;;;;;;4886677;29;20050;-74
2021/09/23 05:33:06;;;;;;;4.05;3.63;;;11.40;99.90;;;;;;4888594;29;20086;-73
2021/09/23 05:35:35;;;;;;;6.65;3.35;;;11.40;99.90;;;;;;4893883;29;20048;-74
2021/09/23 05:38:01;;;;;;;6.22;3.05;;;11.40;99.90;;;;;;4880809;29;20096;-71
2021/09/23 05:40:27;;;;;;;7.45;2.85;;;11.50;99.90;;;;;;4879582;29;20119;-72
2021/09/23 05:42:53;;;;;;;5.95;3.10;;;11.50;99.90;;;;;;4880474;29;20072;-72
2021/09/23 05:45:19;;;;;;;6.55;2.90;;;11.50;99.90;;;;;;4880404;29;20539;-72
2021/09/23 05:47:46;;;;;;;4.63;2.40;;;11.50;99.90;;;;;;4880030;29;20088;-72
2021/09/23 05:50:13;;;;;;;4.90;2.83;;;11.40;99.90;;;;;;4878948;29;20047;-72
2021/09/23 05:52:39;;;;;;;4.97;2.67;;;11.40;99.90;;;;;;4878736;29;20085;-72
2021/09/23 05:55:06;;;;;;;7.55;3.40;;;11.40;99.90;;;;;;4878669;29;20049;-72
2021/09/23 05:57:33;;;;;;;5.15;2.97;;;11.40;99.90;;;;;;4878827;29;20160;-72
2021/09/23 06:00:13;;;;;;;6.00;3.55;;;11.40;99.90;;;;;;4886172;29;20098;-72
2021/09/23 06:02:41;;;;;;;4.65;3.10;;;11.60;99.90;;;;;;4895971;29;20051;-72
2021/09/23 06:05:07;;;;;;;4.82;2.80;;;11.50;99.90;;;;;;4898821;29;20044;-72
2021/09/23 06:07:33;;;;;;;4.97;2.80;;;11.50;99.90;;;;;;4899020;29;20108;-72
2021/09/23 06:09:59;;;;;;;9.80;3.30;;;11.60;99.90;;;;;;4899230;29;20535;-72
2021/09/23 06:12:25;;;;;;;4.20;2.70;;;11.60;99.90;;;;;;4891784;29;20074;-72
2021/09/23 06:14:51;;;;;;;6.20;2.83;;;11.70;99.90;;;;;;4878971;29;20524;-72
2021/09/23 06:17:17;;;;;;;4.03;3.17;;;11.60;99.90;;;;;;4875393;29;20059;-71
2021/09/23 06:19:43;;;;;;;9.20;3.35;;;11.70;99.90;;;;;;4874347;29;20044;-71
2021/09/23 06:22:09;;;;;;;5.32;2.67;;;11.60;99.90;;;;;;4878878;29;20127;-71
2021/09/23 06:24:35;;;;;;;5.95;2.97;;;11.70;99.90;;;;;;4879214;29;20048;-71
2021/09/23 06:27:01;;;;;;;2.95;2.60;;;11.70;99.90;;;;;;4878239;29;20052;-71
2021/09/23 06:29:27;;;;;;;5.72;2.97;;;11.70;99.90;;;;;;4879515;29;20064;-69
2021/09/23 06:31:53;;;;;;;4.15;2.88;;;11.80;99.90;;;;;;4879814;29;20493;-69
2021/09/23 06:34:20;;;;;;;3.72;3.00;;;11.80;99.90;;;;;;4890232;29;20071;-70
2021/09/23 06:36:45;;;;;;;7.32;3.05;;;11.70;99.90;;;;;;4899650;29;20044;-71
2021/09/23 06:39:12;;;;;;;4.95;2.80;;;11.70;99.90;;;;;;4899565;29;20380;-71
2021/09/23 06:41:37;;;;;;;4.32;2.65;;;11.80;99.90;;;;;;4899196;29;20037;-70
2021/09/23 06:44:05;;;;;;;6.18;3.13;;;12.00;99.90;;;;;;4897136;29;20393;-71
2021/09/23 06:46:32;;;;;;;7.50;2.92;;;12.00;99.90;;;;;;4897149;29;20058;-72
2021/09/23 06:48:58;;;;;;;5.47;3.35;;;12.00;99.90;;;;;;4898024;29;20589;-72
2021/09/23 06:51:24;;;;;;;7.47;3.15;;;12.20;99.90;;;;;;4899050;29;20051;-72
2021/09/23 06:53:50;;;;;;;4.47;2.95;;;12.20;99.90;;;;;;4898959;29;20033;-71
2021/09/23 06:56:16;;;;;;;5.32;2.88;;;12.20;99.90;;;;;;4899076;29;20073;-72
2021/09/23 06:58:42;;;;;;;8.07;2.97;;;12.20;99.90;;;;;;4899065;29;20045;-72
2021/09/23 07:01:08;;;;;;;5.60;3.30;;;12.30;99.90;;;;;;4898361;29;20100;-72
2021/09/23 07:03:34;;;;;;;4.00;2.95;;;12.30;99.90;;;;;;4898625;29;20068;-71
2021/09/23 07:06:00;;;;;;;4.68;2.97;;;12.30;99.90;;;;;;4898905;29;20096;-71
2021/09/23 07:08:26;;;;;;;7.00;3.13;;;12.40;99.90;;;;;;4899073;29;20049;-71
2021/09/23 07:10:52;;;;;;;4.97;3.35;;;12.40;99.90;;;;;;4898894;29;20125;-72
2021/09/23 07:13:19;;;;;;;4.10;3.22;;;12.40;99.90;;;;;;4898858;29;20559;-70
2021/09/23 07:15:45;;;;;;;5.88;3.33;;;12.50;99.90;;;;;;4902096;29;20115;-71
2021/09/23 07:18:11;;;;;;;5.25;3.33;;;12.60;99.90;;;;;;4902316;29;20044;-70
2021/09/23 07:20:37;;;;;;;5.95;3.20;;;12.70;99.90;;;;;;4901762;29;20051;-71
2021/09/23 07:23:03;;;;;;;9.50;3.47;;;12.70;99.90;;;;;;4902094;29;20116;-71
2021/09/23 07:25:30;;;;;;;4.70;3.60;;;12.80;99.90;;;;;;4901946;29;20072;-70
2021/09/23 07:27:57;;;;;;;3.75;3.33;;;12.90;99.90;;;;;;4901247;29;20044;-69
2021/09/23 07:30:23;;;;;;;4.55;3.28;;;12.90;99.90;;;;;;4900092;29;20045;-70
2021/09/23 07:32:50;;;;;;;3.90;3.30;;;13.00;99.90;;;;;;4900490;29;20131;-69
2021/09/23 07:35:17;;;;;;;7.45;3.10;;;13.10;99.90;;;;;;4901054;29;20128;-71
2021/09/23 07:37:43;;;;;;;7.93;3.00;;;13.20;99.90;;;;;;4901761;29;20079;-70
2021/09/23 07:40:11;;;;;;;6.60;3.30;;;13.20;99.90;;;;;;4901456;29;20067;-70
2021/09/23 07:42:38;;;;;;;6.65;3.67;;;13.20;99.90;;;;;;4901989;29;20127;-71
2021/09/23 07:45:05;;;;;;;3.97;3.50;;;13.30;99.90;;;;;;4900133;29;20048;-70
2021/09/23 07:47:31;;;;;;;6.95;3.65;;;13.40;99.90;;;;;;4901420;29;20062;-71
2021/09/23 07:49:57;;;;;;;7.80;3.90;;;13.50;99.90;;;;;;4901112;29;20531;-71
2021/09/23 07:52:23;;;;;;;7.45;3.60;;;13.50;99.90;;;;;;4900636;29;20040;-71
2021/09/23 07:54:52;;;;;;;4.93;3.63;;;13.60;99.90;;;;;;4900069;29;20597;-72
2021/09/23 07:57:18;;;;;;;6.82;3.63;;;13.70;99.90;;;;;;4899988;29;20103;-72
2021/09/23 07:59:44;;;;;;;6.25;3.70;;;13.80;99.90;;;;;;4899773;29;20168;-70
2021/09/23 08:02:10;;;;;;;5.13;3.70;;;13.80;99.90;;;;;;4899662;29;20135;-69
2021/09/23 08:04:36;;;;;;;4.70;3.90;;;13.80;99.90;;;;;;4899655;29;20052;-68
2021/09/23 08:07:02;;;;;;;5.75;3.38;;;13.90;99.90;;;;;;4894911;29;20049;-71
2021/09/23 08:09:29;;;;;;;6.68;4.00;;;14.00;99.90;;;;;;4899217;29;20192;-71
2021/09/23 08:11:55;;;;;;;4.90;3.65;;;14.10;99.90;;;;;;4900345;29;20135;-71
2021/09/23 08:14:21;;;;;;;6.82;3.90;;;14.20;99.90;;;;;;4901351;29;20044;-71
2021/09/23 08:16:48;;;;;;;5.93;3.63;;;14.30;99.90;;;;;;4901078;29;20519;-70
2021/09/23 08:19:14;;;;;;;4.60;3.72;;;14.50;99.90;;;;;;4899983;29;20040;-71
2021/09/23 08:21:40;;;;;;;4.45;3.92;;;14.60;99.90;;;;;;4900902;29;20044;-70
2021/09/23 08:24:06;;;;;;;4.88;3.75;;;14.70;99.90;;;;;;4901623;29;20051;-69
2021/09/23 08:26:32;;;;;;;4.75;4.20;;;14.80;99.90;;;;;;4900491;29;20040;-69
2021/09/23 08:28:57;;;;;;;4.50;4.07;;;14.80;99.90;;;;;;4901603;29;20507;-69
2021/09/23 08:31:23;;;;;;;5.10;4.05;;;14.90;99.90;;;;;;4899758;29;20044;-69
2021/09/23 08:33:50;;;;;;;4.32;3.92;;;15.10;99.90;;;;;;4899972;29;20041;-68
2021/09/23 08:36:16;;;;;;;6.53;3.65;;;15.30;99.90;;;;;;4900448;29;20534;-69
2021/09/23 08:38:43;;;;;;;7.45;3.50;;;15.50;97.30;;;;;;4899792;29;20123;-69
2021/09/23 08:41:09;;;;;;;5.07;3.78;;;15.70;77.10;;;;;;4900378;29;20072;-69
2021/09/23 08:43:35;;;;;;;6.07;3.60;;;15.80;95.90;;;;;;4900339;29;20036;-69
2021/09/23 08:46:03;;;;;;;5.15;3.70;;;15.80;87.90;;;;;;4899989;29;20044;-70
2021/09/23 08:48:31;;;;;;;6.38;3.88;;;16.00;65.00;;;;;;4900099;29;20047;-69
2021/09/23 08:50:57;;;;;;;7.25;4.38;;;16.10;35.70;;;;;;4901159;29;20049;-69
2021/09/23 08:53:25;;;;;;;9.57;6.30;;;16.10;42.80;;;;;;4900568;29;20052;-69
2021/09/23 08:55:51;;;;;;;8.70;5.95;;;16.00;58.30;;;;;;4900381;29;20044;-69
2021/09/23 08:58:18;;;;;;;7.65;5.65;;;15.90;66.90;;;;;;4900265;29;20048;-69
2021/09/23 09:01:01;;;;;;;6.90;4.53;;;15.90;46.70;;;;;;4900154;29;20068;-69
2021/09/23 09:03:27;;;;;;;8.50;5.22;;;16.00;90.70;;;;;;4900364;29;20036;-69
2021/09/23 09:05:55;;;;;;;7.13;5.32;;;15.90;41.30;;;;;;4900745;29;20045;-69
2021/09/23 09:08:22;;;;;;;6.22;5.43;;;16.00;21.30;;;;;;4899745;29;20052;-69
2021/09/23 09:10:48;;;;;;;5.80;5.18;;;16.20;26.60;;;;;;4899914;29;20049;-69
2021/09/23 09:13:14;;;;;;;5.28;4.82;;;16.30;24.20;;;;;;4899979;29;20123;-69
2021/09/23 09:15:44;;;;;;;5.53;5.03;;;16.50;21.90;;;;;;4899972;29;20139;-69
2021/09/23 09:18:28;;;;;;;5.35;4.85;;;16.60;13.70;;;;;;4899856;29;20472;-69
2021/09/23 09:21:01;;;;;;;6.75;5.07;;;16.70;5.80;;;;;;4900014;29;20066;-69
2021/09/23 09:23:39;;;;;;;5.47;4.90;;;16.80;5.20;;;;;;4900058;29;20047;-69
2021/09/23 09:26:06;;;;;;;6.43;5.20;;;16.70;4.40;;;;;;4900543;29;20037;-69
2021/09/23 09:28:32;;;;;;;6.65;5.18;;;16.40;15.70;;;;;;4900332;29;20495;-69
2021/09/23 09:31:00;;;;;;;6.00;5.47;;;16.30;20.20;;;;;;4899503;29;20051;-69
2021/09/23 09:33:40;;;;;;;5.72;5.22;;;16.20;27.60;;;;;;4897892;29;20103;-68
2021/09/23 09:36:25;;;;;;;6.80;5.32;;;16.30;17.60;;;;;;4899206;29;20055;-68
2021/09/23 09:38:52;;;;;;;6.22;4.78;;;16.50;10.60;;;;;;4898311;29;20041;-68
2021/09/23 09:41:24;;;;;;;4.60;4.20;;;16.70;1.00;;;;;;4899160;29;20127;-70
2021/09/23 09:43:50;;;;;;;6.32;4.20;;;16.90;1.00;;;;;;4899466;29;20040;-68
2021/09/23 09:46:30;;;;;;;5.10;4.60;;;17.20;1.00;;;;;;4899064;29;20075;-68
2021/09/23 09:48:56;;;;;;;7.03;4.78;;;17.30;1.00;;;;;;4899598;29;20070;-68
2021/09/23 09:51:38;;;;;;;5.63;5.13;;;17.30;1.00;;;;;;4899561;29;20040;-67
2021/09/23 09:54:05;;;;;;;5.32;4.65;;;17.20;1.00;;;;;;4899337;29;20036;-69
2021/09/23 09:56:31;;;;;;;7.25;5.20;;;17.10;1.00;;;;;;4899249;29;20048;-69
2021/09/23 09:59:15;;;;;;;7.40;4.75;;;17.30;1.00;;;;;;4899791;29;20128;-69
2021/09/23 10:01:44;;;;;;;7.00;5.07;;;17.30;1.00;;;;;;4901906;29;20521;-69
2021/09/23 10:04:11;;;;;;;5.82;4.30;;;17.30;1.00;;;;;;4897058;29;20041;-70
2021/09/23 10:06:39;;;;;;;7.72;4.70;;;17.10;1.00;;;;;;4896393;29;20036;-70
2021/09/23 10:09:06;;;;;;;5.10;4.60;;;16.90;1.00;;;;;;4897269;29;20064;-70
2021/09/23 10:11:33;;;;;;;5.30;4.60;;;17.20;1.00;;;;;;4898852;29;20629;-69
2021/09/23 10:14:01;;;;;;;4.90;4.40;;;17.20;1.00;;;;;;4898652;29;20534;-69
2021/09/23 10:16:28;;;;;;;6.88;4.93;;;17.10;1.00;;;;;;4899007;29;20047;-69
2021/09/23 10:18:56;;;;;;;5.07;4.57;;;17.30;1.00;;;;;;4898868;29;20048;-70
2021/09/23 10:21:23;;;;;;;4.88;4.40;;;17.60;1.00;;;;;;4898908;29;20042;-71
2021/09/23 10:23:50;;;;;;;5.60;5.00;;;18.20;1.00;;;;;;4898696;29;20083;-70
2021/09/23 10:26:18;;;;;;;5.40;4.55;;;18.10;1.00;;;;;;4899177;29;20048;-70
2021/09/23 10:28:46;;;;;;;8.65;4.45;;;18.40;1.00;;;;;;4898870;29;20037;-70
2021/09/23 10:31:20;;;;;;;6.32;4.22;;;18.30;1.00;;;;;;4898768;29;20040;-71
2021/09/23 10:33:48;;;;;;;9.15;5.00;;;18.20;1.00;;;;;;4898096;29;20496;-71
2021/09/23 10:36:16;;;;;;;4.22;3.83;;;18.10;1.00;;;;;;4899008;29;20048;-71
2021/09/23 10:38:44;;;;;;;4.47;4.07;;;18.10;1.00;;;;;;4898949;29;20128;-71
2021/09/23 10:41:13;;;;;;;5.65;4.18;;;18.10;1.00;;;;;;4899081;29;20051;-71
2021/09/23 10:43:42;;;;;;;5.85;4.38;;;18.20;1.00;;;;;;4882215;29;20489;-71
2021/09/23 10:46:11;;;;;;;4.88;4.25;;;18.30;1.00;;;;;;4898598;29;20048;-71
2021/09/23 10:48:38;;;;;;;4.45;4.05;;;18.40;1.00;;;;;;4900398;29;20518;-71
2021/09/23 10:51:05;;;;;;;6.20;4.60;;;18.50;1.00;;;;;;4902669;29;20123;-70
2021/09/23 10:53:35;;;;;;;6.45;4.47;;;18.60;1.00;;;;;;4902566;29;20096;-71
2021/09/23 10:56:08;;;;;;;4.35;3.95;;;18.60;1.00;;;;;;4902381;29;20079;-71
2021/09/23 10:58:35;;;;;;;4.95;4.43;;;18.60;1.00;;;;;;4902443;29;20048;-71
2021/09/23 11:01:03;;;;;;;6.35;4.47;;;18.30;1.00;;;;;;4903239;29;20037;-71
2021/09/23 11:03:39;;;;;;;6.50;4.50;;;18.40;1.00;;;;;;4901783;29;20089;-71
2021/09/23 11:06:10;;;;;;;5.28;3.97;;;18.80;1.00;;;;;;4898445;29;20100;-71
2021/09/23 11:08:46;;;;;;;4.60;4.00;;;19.00;1.00;;;;;;4900234;29;20084;-71
2021/09/23 11:11:13;;;;;;;5.78;4.70;;;18.80;1.00;;;;;;4901250;29;20055;-71
2021/09/23 11:13:41;;;;;;;5.80;4.40;;;18.80;1.00;;;;;;4902362;29;20059;-71
2021/09/23 11:16:12;;;;;;;4.45;3.97;;;18.50;1.00;;;;;;4902352;29;20045;-71
2021/09/23 11:18:39;;;;;;;4.80;4.18;;;18.30;1.00;;;;;;4902365;29;20492;-71
2021/09/23 11:21:06;;;;;;;5.22;4.72;;;18.60;1.00;;;;;;4902546;29;20044;-71
2021/09/23 11:23:34;;;;;;;4.50;3.72;;;18.90;1.00;;;;;;4902022;29;20096;-71
2021/09/23 11:26:02;;;;;;;6.00;4.32;;;19.10;1.00;;;;;;4902070;29;20146;-71
2021/09/23 11:28:29;;;;;;;6.57;3.97;;;19.50;1.00;;;;;;4902233;29;20048;-71
2021/09/23 11:30:56;;;;;;;5.97;3.80;;;19.60;1.00;;;;;;4901943;29;20047;-71
2021/09/23 11:33:24;;;;;;;4.25;3.50;;;19.70;1.00;;;;;;4902319;29;20051;-71
2021/09/23 11:35:52;;;;;;;4.90;3.60;;;19.40;1.00;;;;;;4901971;29;20044;-71
2021/09/23 11:38:20;;;;;;;6.05;3.80;;;19.30;1.00;;;;;;4902363;29;20052;-71
2021/09/23 11:40:48;;;;;;;7.00;3.70;;;19.20;1.00;;;;;;4901942;29;20041;-71
2021/09/23 11:43:20;;;;;;;6.15;3.42;;;19.70;1.00;;;;;;4902174;29;20041;-71
2021/09/23 11:45:54;;;;;;;7.72;3.80;;;19.80;1.00;;;;;;4901436;29;20048;-71
2021/09/23 11:48:27;;;;;;;4.43;3.83;;;19.70;1.00;;;;;;4902127;29;20155;-71
2021/09/23 11:51:09;;;;;;;3.88;3.50;;;19.40;1.00;;;;;;4901708;29;20048;-71
2021/09/23 11:53:37;;;;;;;4.25;3.85;;;19.10;1.00;;;;;;4901660;29;20040;-71
2021/09/23 11:56:13;;;;;;;3.42;3.13;;;19.00;1.00;;;;;;4901889;29;20070;-71
2021/09/23 11:58:43;;;;;;;3.85;3.40;;;19.30;1.00;;;;;;4901327;29;20044;-71
2021/09/23 12:01:09;;;;;;;3.90;3.03;;;19.90;1.00;;;;;;4900529;29;20120;-71
2021/09/23 12:03:41;;;;;;;4.53;3.53;;;20.20;1.00;;;;;;4902560;29;20127;-71
2021/09/23 12:06:10;;;;;;;3.63;3.30;;;20.30;1.00;;;;;;4901497;29;20055;-71
2021/09/23 12:08:36;;;;;;;3.88;3.25;;;20.40;1.00;;;;;;4901190;29;20080;-71
2021/09/23 12:11:04;;;;;;;5.03;3.33;;;20.40;1.00;;;;;;4901940;29;20076;-71
2021/09/23 12:13:35;;;;;;;2.95;2.75;;;20.10;1.00;;;;;;4901542;29;20041;-71
2021/09/23 12:16:12;;;;;;;3.35;3.05;;;19.90;1.00;;;;;;4900786;29;20083;-71
2021/09/23 12:18:40;;;;;;;3.53;3.17;;;20.40;1.00;;;;;;4902437;29;20048;-71
2021/09/23 12:21:10;;;;;;;3.65;3.08;;;20.40;1.00;;;;;;4901480;29;20051;-72
2021/09/23 12:23:36;;;;;;;3.67;3.30;;;20.60;1.00;;;;;;4901485;29;20044;-71
2021/09/23 12:26:27;;;;;;;3.40;2.95;;;20.60;1.00;;;;;;4901344;29;20040;-71
2021/09/23 12:29:04;;;;;;;4.53;3.08;;;20.90;1.00;;;;;;4894154;29;20108;-71
2021/09/23 12:31:31;;;;;;;3.50;3.20;;;20.90;1.00;;;;;;4884522;29;20433;-71
2021/09/23 12:34:03;;;;;;;3.65;3.35;;;20.60;1.00;;;;;;4901277;29;20122;-71
2021/09/23 12:36:34;;;;;;;4.28;3.10;;;20.80;1.00;;;;;;4901634;29;20049;-71
2021/09/23 12:39:04;;;;;;;4.75;3.35;;;20.80;1.00;;;;;;4901499;29;20048;-71
2021/09/23 12:41:30;;;;;;;3.70;3.40;;;20.70;1.00;;;;;;4901148;29;20040;-71
2021/09/23 12:44:07;;;;;;;2.88;2.63;;;20.80;1.00;;;;;;4901061;29;20047;-71
2021/09/23 12:46:33;;;;;;;3.60;2.90;;;20.70;1.00;;;;;;4900841;29;20041;-71
2021/09/23 12:49:18;;;;;;;3.13;2.92;;;20.50;1.00;;;;;;4901234;29;20048;-71
2021/09/23 12:51:47;;;;;;;3.90;2.85;;;20.50;1.00;;;;;;4901090;29;20047;-71